createdAt,value
2022-11-19T00:04:03.037Z,7.2
2022-11-19T00:09:05.022Z,7.2
2022-11-19T00:14:07.370Z,6.5
2022-11-19T00:19:09.719Z,7.2
2022-11-19T00:24:11.928Z,7.9
2022-11-19T00:29:17.810Z,7
2022-11-19T00:34:21.333Z,7.2
2022-11-19T00:39:23.355Z,8
2022-11-19T00:44:25.529Z,8.5
2022-11-19T00:49:33.615Z,8
2022-11-19T00:54:35.568Z,8.7
2022-11-19T01:04:40.275Z,8.3
2022-11-19T01:09:42.221Z,8.7
2022-11-19T01:14:44.299Z,7.9
2022-11-19T01:19:46.490Z,8.5
2022-11-19T01:24:48.736Z,8.3
2022-11-19T01:29:51.017Z,8.7
2022-11-19T01:34:53.216Z,8.7
2022-11-19T01:39:55.261Z,9.8
2022-11-19T01:44:57.384Z,9.1
2022-11-19T01:49:59.813Z,10.6
2022-11-19T01:55:01.803Z,9.1
2022-11-19T02:00:03.756Z,9.9
2022-11-19T02:05:05.849Z,12.1
2022-11-19T02:10:07.932Z,10.4
2022-11-19T02:15:10.116Z,10.7
2022-11-19T02:20:12.802Z,9.7
2022-11-19T02:25:15.100Z,11
2022-11-19T02:30:17.486Z,12.1
2022-11-19T02:35:19.758Z,10.1
2022-11-19T02:40:21.705Z,10.8
2022-11-19T02:45:23.971Z,11.4
2022-11-19T02:50:26.281Z,11.3
2022-11-19T02:55:28.259Z,12.2
2022-11-19T03:00:30.499Z,11.5
2022-11-19T03:05:32.488Z,12.5
2022-11-19T03:10:34.639Z,12.7
2022-11-19T03:15:37.056Z,12.9
2022-11-19T03:20:39.486Z,12.8
2022-11-19T03:25:41.947Z,13.5
2022-11-19T03:30:44.193Z,14.2
2022-11-19T03:35:46.484Z,14.2
2022-11-19T03:40:48.587Z,14
2022-11-19T03:45:50.698Z,14.8
2022-11-19T03:50:52.682Z,15.7
2022-11-19T03:55:54.742Z,15.8
2022-11-19T04:00:57.260Z,15.8
2022-11-19T04:06:03.571Z,17.2
2022-11-19T04:16:15.082Z,17.4
2022-11-19T04:21:17.205Z,16.9
2022-11-19T04:26:19.189Z,18.8
2022-11-19T04:31:21.304Z,17.8
2022-11-19T04:36:23.351Z,18.9
2022-11-19T04:41:25.446Z,18.8
2022-11-19T04:46:27.718Z,17.7
2022-11-19T04:51:30.048Z,17.3
2022-11-19T04:56:32.486Z,17
2022-11-19T05:01:34.598Z,17.2
2022-11-19T05:06:37.406Z,15.2
2022-11-19T05:11:39.388Z,19.8
2022-11-19T05:16:41.638Z,18.5
2022-11-19T05:21:44.079Z,19.9
2022-11-19T05:26:46.089Z,20
2022-11-19T05:31:48.289Z,22.4
2022-11-19T05:36:50.315Z,22.2
2022-11-19T05:41:52.414Z,22.7
2022-11-19T05:46:54.777Z,23.8
2022-11-19T05:51:57.059Z,24.5
2022-11-19T05:56:59.129Z,23
2022-11-19T06:02:01.537Z,21.9
2022-11-19T06:07:03.574Z,22.8
2022-11-19T06:12:05.903Z,25
2022-11-19T06:17:09.045Z,24.6
2022-11-19T06:22:11.978Z,23.2
2022-11-19T06:27:14.250Z,22.4
2022-11-19T06:32:16.497Z,22
2022-11-19T06:37:18.676Z,21.7
2022-11-19T06:42:20.757Z,23.2
2022-11-19T06:47:22.756Z,21.3
2022-11-19T06:52:24.755Z,19.3
2022-11-19T06:57:26.791Z,19.4
2022-11-19T07:02:28.996Z,16.6
2022-11-19T07:07:30.995Z,14.7
2022-11-19T07:12:33.127Z,15.4
2022-11-19T07:17:35.286Z,12.6
2022-11-19T07:22:37.524Z,32.3
2022-11-19T07:27:39.428Z,14.2
2022-11-19T07:32:41.314Z,12.7
2022-11-19T07:37:43.191Z,14.2
2022-11-19T07:42:45.228Z,14.4
2022-11-19T07:47:47.211Z,14.3
2022-11-19T07:52:49.099Z,16.7
2022-11-19T07:57:51.062Z,13.7
2022-11-19T08:02:53.330Z,14.2
2022-11-19T08:07:55.323Z,14.1
2022-11-19T08:12:57.447Z,13.7
2022-11-19T08:17:59.361Z,13.8
2022-11-19T08:23:01.343Z,14.8
2022-11-19T08:28:03.233Z,15.1
2022-11-19T08:33:05.113Z,13.4
2022-11-19T08:38:06.986Z,14.3
2022-11-19T08:43:09.024Z,13.1
2022-11-19T08:48:11.215Z,13.1
2022-11-19T08:53:13.649Z,11.7
2022-11-19T08:58:15.743Z,11.7
2022-11-19T09:03:18.258Z,12.5
2022-11-19T09:08:20.101Z,12.5
2022-11-19T09:13:22.107Z,12.6
2022-11-19T09:18:24.327Z,12.7
2022-11-19T09:23:26.415Z,12.6
2022-11-19T09:28:28.683Z,12.6
2022-11-19T09:33:30.896Z,13.2
2022-11-19T09:38:33.131Z,16.9
2022-11-19T09:43:35.086Z,12.2
2022-11-19T09:48:37.340Z,11.2
2022-11-19T09:53:39.427Z,12.6
2022-11-19T09:58:41.379Z,13.2
2022-11-19T10:03:43.627Z,12.5
2022-11-19T10:08:45.880Z,12
2022-11-19T10:13:47.798Z,12.1
2022-11-19T10:18:49.846Z,13
2022-11-19T10:23:52.363Z,12.6
2022-11-19T10:28:54.351Z,13.2
2022-11-19T10:33:56.543Z,13.4
2022-11-19T10:38:58.709Z,12.9
2022-11-19T10:44:00.909Z,12.9
2022-11-19T10:49:04.916Z,12.7
2022-11-19T10:54:07.259Z,11.2
2022-11-19T10:59:09.218Z,11.6
2022-11-19T11:04:11.919Z,10.8
2022-11-19T11:09:14.120Z,15.2
2022-11-19T11:14:16.060Z,14.1
2022-11-19T11:19:18.473Z,14.2
2022-11-19T11:24:22.512Z,14.1
2022-11-19T11:29:24.620Z,13.1
2022-11-19T11:34:26.944Z,14.7
2022-11-19T11:39:29.132Z,30
2022-11-19T11:44:31.176Z,15.8
2022-11-19T11:49:33.123Z,16.1
2022-11-19T11:54:35.147Z,14.8
2022-11-19T11:59:37.213Z,13.6
2022-11-19T12:04:39.146Z,13.2
2022-11-19T12:09:41.087Z,14.1
2022-11-19T12:14:43.079Z,13.7
2022-11-19T12:19:45.149Z,15.6
2022-11-19T12:24:47.934Z,21.2
2022-11-19T12:29:49.919Z,12.7
2022-11-19T12:34:51.910Z,12.2
2022-11-19T12:39:54.244Z,11.4
2022-11-19T12:44:56.472Z,10.9
2022-11-19T12:49:58.379Z,10.8
2022-11-19T12:55:00.386Z,9.9
2022-11-19T13:00:02.355Z,10.6
2022-11-19T13:05:04.309Z,11.4
2022-11-19T13:10:07.003Z,11.5
2022-11-19T13:15:09.093Z,11.3
2022-11-19T13:20:11.180Z,12.8
2022-11-19T13:25:13.561Z,14.3
2022-11-19T13:30:15.624Z,15
2022-11-19T13:35:17.806Z,16.3
2022-11-19T13:40:20.053Z,18.9
2022-11-19T13:45:22.401Z,37.6
2022-11-19T13:50:23.363Z,21.2
2022-11-19T13:55:25.692Z,31.1
2022-11-19T14:00:27.995Z,20.7
2022-11-19T14:05:30.558Z,21
2022-11-19T14:10:32.806Z,18.9
2022-11-19T14:15:34.952Z,17.1
2022-11-19T14:20:36.957Z,18.3
2022-11-19T14:25:39.152Z,17.2
2022-11-19T14:30:41.194Z,15.3
2022-11-19T14:35:43.313Z,15
2022-11-19T14:40:45.318Z,14.7
2022-11-19T14:45:47.491Z,16.1
2022-11-19T14:50:49.464Z,16.5
2022-11-19T14:55:51.438Z,20.1
2022-11-19T15:00:53.531Z,20.2
2022-11-19T15:05:55.577Z,23.7
2022-11-19T15:10:57.662Z,17
2022-11-19T15:15:59.658Z,18
2022-11-19T15:21:02.153Z,16.4
2022-11-19T15:26:04.405Z,16.8
2022-11-19T15:31:06.433Z,15.9
2022-11-19T15:36:09.267Z,15.1
2022-11-19T15:41:11.849Z,18
2022-11-19T15:46:13.893Z,18
2022-11-19T15:51:15.917Z,16.7
2022-11-19T15:56:17.898Z,18.1
2022-11-19T16:01:20.298Z,16.4
2022-11-19T16:06:23.371Z,16
2022-11-19T16:11:25.703Z,17.6
2022-11-19T16:16:28.026Z,16.7
2022-11-19T16:21:30.287Z,17.2
2022-11-19T16:26:32.673Z,18.1
2022-11-19T16:31:35.128Z,16.7
2022-11-19T16:36:37.423Z,14.7
2022-11-19T16:41:39.672Z,16.1
2022-11-19T16:46:41.684Z,15.6
2022-11-19T16:51:43.943Z,15.8
2022-11-19T16:56:46.350Z,17.3
2022-11-19T17:01:48.531Z,21.6
2022-11-19T17:06:51.235Z,18.4
2022-11-19T17:11:53.434Z,18.5
2022-11-19T17:16:55.475Z,17.2
2022-11-19T17:21:58.023Z,26.5
2022-11-19T17:27:00.738Z,17.9
2022-11-19T17:32:02.792Z,19.3
2022-11-19T17:37:04.811Z,19.3
2022-11-19T17:42:06.949Z,20.5
2022-11-19T17:47:20.655Z,20.9
2022-11-19T17:52:15.427Z,20.6
2022-11-19T17:57:22.118Z,22.7
2022-11-19T18:02:24.135Z,21.2
2022-11-19T18:07:26.281Z,23.4
2022-11-19T18:12:28.650Z,21.3
2022-11-19T18:17:30.685Z,26
2022-11-19T18:22:32.738Z,21.5
2022-11-19T18:27:35.235Z,21.2
2022-11-19T18:32:37.580Z,22.9
2022-11-19T18:37:39.570Z,22.1
2022-11-19T18:42:41.580Z,21.4
2022-11-19T18:47:43.788Z,22
2022-11-19T18:52:46.012Z,21.9
2022-11-19T18:57:48.632Z,21
2022-11-19T19:02:50.632Z,19.8
2022-11-19T19:07:53.025Z,36.9
2022-11-19T19:12:53.410Z,20.8
2022-11-19T19:17:55.497Z,19.9
2022-11-19T19:22:57.580Z,20.6
2022-11-19T19:27:59.988Z,21.3
2022-11-19T19:33:02.087Z,20.9
2022-11-19T19:38:04.128Z,19.5
2022-11-19T19:43:06.545Z,21.3
2022-11-19T19:48:09.522Z,19.5
2022-11-19T19:53:11.718Z,19.6
2022-11-19T19:58:13.808Z,19.7
2022-11-19T20:03:16.144Z,19.1
2022-11-19T20:08:18.236Z,19.1
2022-11-19T20:13:20.234Z,20.4
2022-11-19T20:18:22.217Z,21.8
2022-11-19T20:23:24.320Z,20.7
2022-11-19T20:28:27.193Z,20.9
2022-11-19T20:33:30.412Z,19.7
2022-11-19T20:38:32.610Z,22.2
2022-11-19T20:43:36.455Z,21.6
2022-11-19T20:48:43.056Z,23.5
2022-11-19T20:53:45.078Z,24
2022-11-19T20:58:47.288Z,22
2022-11-19T21:03:49.333Z,22.7
2022-11-19T21:08:51.306Z,23.6
2022-11-19T21:13:53.332Z,22.3
2022-11-19T21:18:55.469Z,25.5
2022-11-19T21:23:57.591Z,22.2
2022-11-19T21:28:59.858Z,22
2022-11-19T21:34:01.898Z,23.4
2022-11-19T21:39:03.993Z,25.5
2022-11-19T21:44:09.156Z,24.2
2022-11-19T21:49:16.180Z,22.1
2022-11-19T21:54:20.127Z,23.9
2022-11-19T21:59:22.485Z,22.5
2022-11-19T22:04:25.118Z,21.4
2022-11-19T22:09:27.185Z,21.5
2022-11-19T22:14:29.170Z,20.8
2022-11-19T22:19:31.253Z,19.5
2022-11-19T22:24:33.283Z,20.4
2022-11-19T22:29:35.672Z,20
2022-11-19T22:34:37.698Z,19.6
2022-11-19T22:39:39.961Z,18.7
2022-11-19T22:44:42.002Z,18.6
2022-11-19T22:49:44.091Z,18.8
2022-11-19T22:54:46.339Z,19.7
2022-11-19T22:59:51.234Z,20.8
2022-11-19T23:04:53.230Z,18.6
2022-11-19T23:09:55.291Z,20
2022-11-19T23:14:57.363Z,21.1
2022-11-19T23:20:04.340Z,19.7
2022-11-19T23:25:06.754Z,18.9
2022-11-19T23:30:09.857Z,18.7
2022-11-19T23:35:11.889Z,19.1
2022-11-19T23:40:14.264Z,19.1
2022-11-19T23:45:17.180Z,18.5
2022-11-19T23:50:19.673Z,20.4
2022-11-19T23:55:21.715Z,19.2
